Rogersville, Alabama
Current Conditions -  °F | °C
As of 3:53 PM on Friday 28 Nov 2014 (Local Time) from KMSL Reporting Station
Clear Clear  
Wind Chill: 52°   Ceiling: Unl
Heat Index: 52°   Visibility: 10mi
Dew Point: 24°   Wind: 7mph
Humidity: 34%   Direction: 180°S
Pressure: 30.25"   Gusts: NA
Location:  34.83°N, 87.29°W
Report Text: KMSL 282153Z AUTO 18006KT 10SM CLR 11/M04 A3025 RMK AO2 SLP245 T01111044
Loading
Personal Weather Stations






























Interactive Weather Map New forecast layout! Learn more

10-Day Weather Forecast

Advertisements
Track Severe Weather on mobile